Time;durP1;ratioP1;P1;durP2;ratioP2;P2;SDS_P1;SDS_P2;PMS_P1;PMS_P2;Temp;Humidity;BMP_temperature;BMP_pressure;BME280_temperature;BME280_humidity;BME280_pressure;Samples;Min_cycle;Max_cycle;Signal;HPM_P1;HPM_P2
2022/10/06 00:01:42;;;;;;;1.05;0.57;;;;;;;11.95;87.28;100804.88;10017409;29;20525;-77
2022/10/06 00:06:46;;;;;;;1.60;0.50;;;;;;;11.78;87.55;100809.91;10018360;29;20589;-78
2022/10/06 00:11:49;;;;;;;0.52;0.40;;;;;;;11.69;87.87;100812.34;10018631;29;20064;-77
2022/10/06 00:16:51;;;;;;;1.77;0.43;;;;;;;11.68;87.89;100816.03;10017925;29;20100;-77
2022/10/06 00:21:56;;;;;;;0.70;0.40;;;;;;;11.68;88.02;100829.47;10020176;29;20060;-77
2022/10/06 00:26:58;;;;;;;1.27;0.30;;;;;;;11.02;88.39;100826.44;10024106;29;20057;-78
2022/10/06 00:32:01;;;;;;;1.92;0.35;;;;;;;11.31;87.93;100841.38;10032033;29;20050;-76
2022/10/06 00:37:05;;;;;;;1.10;0.50;;;;;;;11.60;85.89;100855.25;10024269;29;20046;-78
2022/10/06 00:42:21;;;;;;;1.10;0.43;;;;;;;11.54;86.07;100861.13;10022252;29;21302;-77
2022/10/06 00:47:27;;;;;;;1.80;0.40;;;;;;;11.22;87.35;100862.63;10052967;29;20526;-78
2022/10/06 00:52:32;;;;;;;3.10;0.50;;;;;;;11.61;85.54;100873.97;10024304;29;20046;-77
2022/10/06 00:57:38;;;;;;;0.90;0.60;;;;;;;11.62;86.00;100875.69;10024570;29;20144;-77
2022/10/06 01:02:43;;;;;;;3.03;0.65;;;;;;;12.01;84.76;100880.75;10044270;29;20060;-77
2022/10/06 01:07:48;;;;;;;1.88;0.65;;;;;;;11.99;84.87;100885.44;10034429;29;20178;-78
2022/10/06 01:12:51;;;;;;;3.35;0.40;;;;;;;11.85;85.31;100890.06;10044822;29;20138;-77
2022/10/06 01:17:58;;;;;;;0.90;0.50;;;;;;;11.69;85.57;100903.84;10054720;29;20126;-77
2022/10/06 01:23:05;;;;;;;4.45;0.88;;;;;;;11.88;84.66;100921.28;9998744;29;20060;-77
2022/10/06 01:28:09;;;;;;;2.60;1.00;;;;;;;11.97;83.82;100936.69;9984588;29;20411;-77
2022/10/06 01:33:12;;;;;;;2.60;0.88;;;;;;;12.16;83.63;100923.50;10000145;29;21272;-77
2022/10/06 01:38:18;;;;;;;1.73;0.73;;;;;;;12.04;83.87;100948.72;10021776;29;20419;-78
2022/10/06 01:43:24;;;;;;;3.50;0.57;;;;;;;12.15;83.71;100945.16;10037390;29;20060;-78
2022/10/06 01:48:27;;;;;;;1.02;0.70;;;;;;;12.09;83.68;100956.41;10053766;29;20061;-79
2022/10/06 01:53:34;;;;;;;2.60;0.70;;;;;;;12.19;83.47;100964.63;10027080;29;20128;-77
2022/10/06 01:58:37;;;;;;;1.52;0.85;;;;;;;12.22;83.04;100969.78;10023991;29;20064;-79
2022/10/06 02:03:41;;;;;;;3.42;0.88;;;;;;;12.25;82.74;100969.53;10034483;29;20520;-81
2022/10/06 02:08:46;;;;;;;7.97;1.48;;;;;;;12.17;83.25;100988.97;10022668;29;20435;-78
2022/10/06 02:13:49;;;;;;;4.60;1.52;;;;;;;12.08;83.88;101005.88;10046801;29;20168;-78
2022/10/06 02:18:53;;;;;;;4.88;1.20;;;;;;;12.29;82.86;101003.38;10021025;29;20045;-78
2022/10/06 02:23:57;;;;;;;2.15;1.30;;;;;;;12.35;82.01;101010.97;10022128;29;20057;-79
2022/10/06 02:29:00;;;;;;;5.57;1.80;;;;;;;12.26;82.37;101022.41;10022279;29;20061;-80
2022/10/06 02:34:03;;;;;;;4.05;1.45;;;;;;;12.13;83.12;101028.75;10021926;29;20116;-78
2022/10/06 02:39:07;;;;;;;4.30;1.67;;;;;;;12.05;81.99;101038.41;10013427;29;20049;-78
2022/10/06 02:44:10;;;;;;;7.97;2.17;;;;;;;12.16;82.14;101042.00;10021174;29;21139;-78
2022/10/06 02:49:16;;;;;;;6.63;2.10;;;;;;;12.16;81.80;101055.47;10035076;29;20046;-78
2022/10/06 02:54:21;;;;;;;6.00;2.20;;;;;;;12.17;81.84;101061.69;10018406;29;20045;-78
2022/10/06 02:59:26;;;;;;;6.88;2.92;;;;;;;12.12;81.54;101061.19;10033588;29;20050;-77
2022/10/06 03:04:29;;;;;;;8.45;2.80;;;;;;;12.24;81.57;101084.50;10018226;29;20060;-78
2022/10/06 03:09:33;;;;;;;3.55;2.35;;;;;;;11.87;83.00;101083.75;10033501;29;20065;-78
2022/10/06 03:14:36;;;;;;;4.82;3.17;;;;;;;12.20;81.12;101074.91;10022874;29;20057;-78
2022/10/06 03:19:40;;;;;;;8.88;3.17;;;;;;;11.69;83.42;101102.16;10019747;29;20046;-78
2022/10/06 03:24:45;;;;;;;5.68;2.63;;;;;;;11.70;82.06;101098.47;10034001;29;20053;-78
2022/10/06 03:29:48;;;;;;;5.65;1.77;;;;;;;11.48;82.81;101113.50;10019701;29;20057;-77
2022/10/06 03:34:52;;;;;;;9.30;2.08;;;;;;;11.72;81.51;101124.31;10048327;29;20073;-77
2022/10/06 03:39:56;;;;;;;4.47;1.70;;;;;;;11.76;80.79;101132.16;10018655;29;20053;-77
2022/10/06 03:44:59;;;;;;;2.85;0.93;;;;;;;11.85;80.00;101136.88;10001979;29;20057;-76
2022/10/06 03:50:03;;;;;;;4.68;1.23;;;;;;;11.84;79.61;101146.75;10019537;29;20057;-77
2022/10/06 03:55:08;;;;;;;4.47;1.70;;;;;;;11.98;78.85;101150.25;9999187;29;20077;-77
2022/10/06 04:00:13;;;;;;;3.25;1.38;;;;;;;12.02;77.46;101168.75;10017627;29;20058;-77
2022/10/06 04:05:16;;;;;;;9.07;1.40;;;;;;;11.76;78.52;101170.69;10017824;29;20090;-78
2022/10/06 04:10:20;;;;;;;6.88;1.55;;;;;;;11.85;78.09;101180.78;10016215;29;20061;-78
2022/10/06 04:15:23;;;;;;;8.70;1.95;;;;;;;11.79;78.23;101201.91;10048100;29;20435;-77
2022/10/06 04:20:27;;;;;;;8.77;1.35;;;;;;;11.61;78.34;101198.72;10015445;29;20050;-77
2022/10/06 04:25:31;;;;;;;10.13;1.73;;;;;;;11.58;78.23;101204.34;10019296;29;20072;-77
2022/10/06 04:30:35;;;;;;;8.55;1.70;;;;;;;11.32;79.01;101216.97;10037947;29;20060;-74
2022/10/06 04:35:38;;;;;;;10.23;2.13;;;;;;;11.03;79.95;101222.53;10038199;29;20053;-76
2022/10/06 04:40:42;;;;;;;2.80;0.88;;;;;;;11.28;78.41;101235.16;10025235;29;21169;-75
2022/10/06 04:45:46;;;;;;;8.45;1.13;;;;;;;10.87;80.33;101248.75;10052735;29;20098;-77
2022/10/06 04:50:54;;;;;;;9.98;1.30;;;;;;;11.14;78.86;101254.09;10042051;29;20053;-77
2022/10/06 04:56:04;;;;;;;8.52;1.20;;;;;;;10.74;80.64;101265.72;10026165;29;20077;-76
2022/10/06 05:01:13;;;;;;;12.47;1.80;;;;;;;10.74;80.26;101284.53;10067378;29;20049;-76
2022/10/06 05:06:18;;;;;;;11.75;1.98;;;;;;;10.84;80.05;101292.84;10020455;29;20078;-76
2022/10/06 05:11:24;;;;;;;10.32;1.50;;;;;;;10.59;80.54;101307.91;10070728;29;21204;-76
2022/10/06 05:16:30;;;;;;;8.60;1.40;;;;;;;10.69;80.09;101321.59;10061459;29;20053;-75
2022/10/06 05:21:35;;;;;;;6.32;1.50;;;;;;;10.81;79.13;101328.84;10063090;29;20426;-77
2022/10/06 05:26:39;;;;;;;12.55;2.00;;;;;;;10.79;79.24;101327.22;10075814;29;20507;-76
2022/10/06 05:31:47;;;;;;;7.32;1.40;;;;;;;10.45;80.08;101337.53;10061213;29;20423;-76
2022/10/06 05:36:50;;;;;;;12.05;1.95;;;;;;;10.59;79.16;101344.69;10067223;29;20498;-76
2022/10/06 05:41:54;;;;;;;10.73;1.40;;;;;;;10.38;79.68;101363.91;10062415;29;20077;-76
2022/10/06 05:46:58;;;;;;;9.20;1.77;;;;;;;10.54;78.79;101362.91;10037411;29;20053;-76
2022/10/06 05:52:01;;;;;;;10.35;1.52;;;;;;;10.50;79.05;101372.97;10072179;29;20049;-76
2022/10/06 05:57:08;;;;;;;8.05;1.70;;;;;;;10.30;79.79;101389.53;10059147;29;20427;-78
2022/10/06 06:02:11;;;;;;;20.88;2.47;;;;;;;10.54;78.35;101396.03;10036837;29;20509;-77
2022/10/06 06:07:17;;;;;;;12.77;3.03;;;;;;;10.49;78.67;101405.34;10028593;29;20048;-77
2022/10/06 06:12:23;;;;;;;7.43;2.17;;;;;;;10.78;77.59;101416.88;10059995;29;20053;-76
2022/10/06 06:17:45;;;;;;;11.00;1.88;;;;;;;10.74;77.52;101424.28;10064390;29;20161;-76
2022/10/06 06:22:52;;;;;;;12.80;2.10;;;;;;;10.81;77.13;101439.03;10059446;29;20053;-76
2022/10/06 06:27:58;;;;;;;11.02;1.70;;;;;;;10.86;76.94;101443.25;10036643;29;20060;-76
2022/10/06 06:33:01;;;;;;;16.75;2.78;;;;;;;10.81;76.70;101447.09;10045918;29;20459;-76
2022/10/06 06:38:10;;;;;;;13.68;1.77;;;;;;;11.21;74.75;101449.88;10020584;29;20053;-77
2022/10/06 06:43:14;;;;;;;7.80;1.50;;;;;;;11.41;74.42;101464.69;9992980;29;20057;-77
2022/10/06 06:48:46;;;;;;;10.35;2.17;;;;;;;11.09;74.55;101480.25;10021310;29;20067;-77
2022/10/06 06:53:49;;;;;;;9.32;1.88;;;;;;;11.42;74.39;101489.75;10056476;29;20053;-78
2022/10/06 06:58:54;;;;;;;12.93;1.85;;;;;;;11.72;72.96;101498.44;10054391;29;20060;-77
2022/10/06 07:03:58;;;;;;;15.20;1.95;;;;;;;11.15;74.64;101505.91;10031252;29;20046;-76
2022/10/06 07:09:06;;;;;;;15.75;2.10;;;;;;;11.38;74.06;101520.50;10005199;29;20141;-78
2022/10/06 07:14:12;;;;;;;12.35;1.90;;;;;;;11.53;72.80;101519.50;10035234;29;20110;-77
2022/10/06 07:25:10;;;;;;;14.25;2.30;;;;;;;12.03;72.12;101549.31;10047635;29;21271;-78
2022/10/06 07:30:24;;;;;;;9.70;1.52;;;;;;;12.54;69.68;101555.63;10005783;29;20180;-78
2022/10/06 07:35:33;;;;;;;10.25;1.92;;;;;;;12.88;68.63;101564.00;9993635;29;20054;-77
2022/10/06 07:40:36;;;;;;;16.40;2.42;;;;;;;12.17;69.84;101571.63;10039840;29;20090;-77
2022/10/06 07:45:55;;;;;;;11.90;1.83;;;;;;;12.48;68.86;101587.53;10023560;29;20415;-78
2022/10/06 07:51:15;;;;;;;9.90;2.28;;;;;;;12.69;67.78;101590.56;10054404;29;20132;-76
2022/10/06 07:56:20;;;;;;;8.27;1.92;;;;;;;12.90;67.75;101602.50;10047870;29;20053;-76
2022/10/06 08:01:29;;;;;;;15.77;2.40;;;;;;;13.01;66.50;101605.28;10012299;29;20054;-75
2022/10/06 08:06:32;;;;;;;14.75;2.47;;;;;;;13.57;65.52;101607.53;10039508;29;20120;-77
2022/10/06 08:11:35;;;;;;;11.40;1.88;;;;;;;13.07;66.04;101622.88;10029968;29;20045;-76
2022/10/06 08:16:39;;;;;;;8.68;1.63;;;;;;;12.77;66.19;101615.13;10015555;29;20060;-77
2022/10/06 08:21:42;;;;;;;8.05;2.03;;;;;;;12.47;69.01;101637.03;10016908;29;20060;-76
2022/10/06 08:26:45;;;;;;;9.80;2.70;;;;;;;12.88;65.82;101635.94;10017597;29;20062;-77
2022/10/06 08:31:49;;;;;;;10.15;1.70;;;;;;;13.66;64.29;101644.66;10017642;29;20240;-77
2022/10/06 08:36:52;;;;;;;5.07;1.45;;;;;;;13.29;64.58;101654.56;9993102;29;20062;-76
2022/10/06 08:42:20;;;;;;;7.60;1.98;;;;;;;13.72;63.07;101656.84;10025895;29;20079;-76
2022/10/06 08:47:28;;;;;;;8.70;1.55;;;;;;;14.02;62.00;101647.44;10025399;29;20094;-76
2022/10/06 08:52:47;;;;;;;12.90;2.00;;;;;;;14.78;61.01;101654.16;10012320;29;20167;-76
2022/10/06 08:58:01;;;;;;;11.02;1.88;;;;;;;13.64;62.60;101668.22;10026762;29;20064;-77
2022/10/06 09:03:06;;;;;;;10.68;1.55;;;;;;;13.52;62.63;101677.22;10032485;29;20081;-76
2022/10/06 09:08:30;;;;;;;14.35;2.80;;;;;;;14.15;62.28;101664.41;10022962;29;20046;-77
2022/10/06 09:13:39;;;;;;;10.45;1.65;;;;;;;14.40;59.77;101686.88;10022219;29;20084;-77
2022/10/06 09:18:48;;;;;;;8.60;2.00;;;;;;;14.19;60.49;101663.22;10023713;29;20053;-76
2022/10/06 09:24:14;;;;;;;9.38;1.17;;;;;;;14.87;57.83;101677.81;10031323;29;20052;-76
2022/10/06 09:29:17;;;;;;;15.23;1.90;;;;;;;15.62;56.39;101696.13;10062373;29;20049;-78
2022/10/06 09:34:27;;;;;;;10.02;1.25;;;;;;;14.72;56.17;101695.22;10038784;29;20054;-77
2022/10/06 09:39:35;;;;;;;14.30;1.42;;;;;;;14.96;56.20;101711.38;10010006;29;20056;-76
2022/10/06 09:44:46;;;;;;;8.43;2.03;;;;;;;14.46;57.68;101708.94;10020129;29;20231;-76
2022/10/06 09:50:11;;;;;;;10.20;1.65;;;;;;;14.72;56.10;101715.00;10022513;29;20093;-78
2022/10/06 09:55:16;;;;;;;12.90;2.42;;;;;;;14.22;56.27;101721.56;10028936;29;20049;-78
2022/10/06 10:00:26;;;;;;;8.15;1.30;;;;;;;14.77;57.48;101720.94;10021062;29;20096;-78
2022/10/06 10:05:33;;;;;;;9.98;2.05;;;;;;;15.69;54.04;101727.16;10019544;29;20099;-78
2022/10/06 10:10:38;;;;;;;7.90;1.88;;;;;;;15.35;51.98;101726.31;10037382;29;20517;-79
2022/10/06 10:15:53;;;;;;;13.63;1.92;;;;;;;15.03;53.67;101729.72;9995243;29;20112;-78
2022/10/06 10:20:59;;;;;;;11.07;1.40;;;;;;;15.26;52.64;101724.31;10014980;29;20049;-79
2022/10/06 10:26:19;;;;;;;3.60;1.08;;;;;;;15.11;52.01;101730.94;10036537;29;20245;-78
2022/10/06 10:31:33;;;;;;;5.82;1.50;;;;;;;15.13;51.03;101720.88;10030110;29;21200;-79
2022/10/06 10:36:43;;;;;;;7.43;1.70;;;;;;;14.43;53.67;101736.19;10058153;29;20049;-78
2022/10/06 10:41:49;;;;;;;6.05;1.25;;;;;;;15.95;51.44;101734.13;10038415;29;20056;-78
2022/10/06 10:46:57;;;;;;;6.90;1.05;;;;;;;16.06;49.60;101731.41;10059196;29;20530;-77
2022/10/06 10:52:09;;;;;;;8.00;1.02;;;;;;;14.78;51.38;101738.00;10021195;29;20076;-78
2022/10/06 10:57:16;;;;;;;9.40;1.70;;;;;;;15.50;50.58;101745.91;10024908;29;20133;-77
2022/10/06 11:02:20;;;;;;;4.30;1.65;;;;;;;16.58;48.74;101737.88;9992724;29;20293;-78
2022/10/06 11:07:30;;;;;;;5.93;1.05;;;;;;;15.47;49.48;101738.03;10020574;29;20578;-78
2022/10/06 11:12:53;;;;;;;10.20;1.67;;;;;;;15.62;50.50;101755.72;10021078;29;20069;-78
2022/10/06 11:18:08;;;;;;;8.13;1.48;;;;;;;17.15;47.73;101743.88;10048199;29;20130;-78
2022/10/06 11:23:39;;;;;;;5.03;1.23;;;;;;;18.61;44.67;101747.81;10059204;29;20063;-78
2022/10/06 11:28:48;;;;;;;8.27;1.38;;;;;;;19.70;43.10;101742.84;10080988;29;20061;-78
2022/10/06 11:33:53;;;;;;;8.27;1.33;;;;;;;19.69;41.63;101749.28;10092540;29;20058;-78
2022/10/06 11:39:07;;;;;;;7.18;1.35;;;;;;;17.40;45.92;101751.56;10075352;29;20053;-78
2022/10/06 11:44:15;;;;;;;;;;;;;;;18.23;43.78;101754.13;10065949;29;20053;-78
2022/10/06 11:49:52;;;;;;;7.18;1.92;;;;;;;18.07;44.57;101757.38;10063151;29;19934;-78
2022/10/06 11:55:06;;;;;;;9.65;2.03;;;;;;;18.99;43.60;101735.19;9872086;29;20055;-79
2022/10/06 12:00:48;;;;;;;7.25;1.35;;;;;;;18.52;40.87;101757.72;10015578;29;21179;-79
2022/10/06 12:05:51;;;;;;;;;;;;;;;18.24;43.30;101758.53;10019908;29;20057;-79
2022/10/06 12:11:00;;;;;;;4.68;1.42;;;;;;;18.57;42.79;101744.53;10035696;29;19935;-79
2022/10/06 12:16:25;;;;;;;5.97;1.80;;;;;;;19.11;42.77;101719.53;10031726;29;20121;-79
2022/10/06 12:21:56;;;;;;;7.85;1.70;;;;;;;19.36;41.34;101732.50;10038075;29;20049;-78
2022/10/06 12:27:31;;;;;;;5.78;1.20;;;;;;;18.71;41.47;101743.25;10032380;29;20101;-77
2022/10/06 12:32:46;;;;;;;4.68;1.20;;;;;;;17.27;44.08;101726.47;10056365;29;20063;-78
2022/10/06 12:37:51;;;;;;;4.85;1.85;;;;;;;18.87;41.83;101728.19;10040408;29;20054;-78
2022/10/06 12:43:24;;;;;;;9.43;1.50;;;;;;;20.59;38.45;101741.25;10042630;29;20046;-77
2022/10/06 12:48:36;;;;;;;3.63;1.20;;;;;;;20.59;38.37;101738.50;10077710;29;20550;-77
2022/10/06 12:53:47;;;;;;;7.43;1.40;;;;;;;19.91;39.33;101731.66;10079707;29;20068;-79
2022/10/06 12:58:51;;;;;;;6.75;1.65;;;;;;;21.27;36.51;101729.63;10065625;29;20053;-78
2022/10/06 13:03:55;;;;;;;5.72;2.35;;;;;;;20.02;38.31;101716.94;10066364;29;20064;-77
2022/10/06 13:09:06;;;;;;;5.13;1.33;;;;;;;20.16;38.42;101712.81;10067275;29;20049;-78
2022/10/06 13:14:13;;;;;;;4.80;0.90;;;;;;;20.34;37.15;101716.44;10071975;29;20132;-78
2022/10/06 13:19:21;;;;;;;9.13;1.17;;;;;;;20.45;37.61;101716.22;10065553;29;20101;-77
2022/10/06 13:24:27;;;;;;;4.95;1.67;;;;;;;19.82;39.52;101725.25;10052063;29;21231;-79
2022/10/06 13:29:31;;;;;;;9.18;1.58;;;;;;;20.92;37.76;101712.31;10067845;29;20049;-78
2022/10/06 13:34:41;;;;;;;8.02;1.45;;;;;;;21.21;36.89;101710.13;10084181;29;20439;-78
2022/10/06 13:39:45;;;;;;;3.55;0.88;;;;;;;21.82;35.14;101716.38;10088506;29;20143;-78
2022/10/06 13:44:55;;;;;;;5.90;2.00;;;;;;;20.42;37.80;101722.00;10076312;29;20078;-79
2022/10/06 13:50:02;;;;;;;7.15;1.60;;;;;;;20.14;37.13;101715.72;10073605;29;20060;-78
2022/10/06 13:55:15;;;;;;;5.93;1.30;;;;;;;19.68;38.70;101733.97;10072329;29;20057;-78
2022/10/06 14:00:22;;;;;;;4.63;1.20;;;;;;;19.93;37.71;101718.72;10073789;29;20060;-79
2022/10/06 14:05:31;;;;;;;7.90;1.83;;;;;;;19.76;38.14;101722.28;10065790;29;20079;-78
2022/10/06 14:10:45;;;;;;;5.25;1.10;;;;;;;21.19;36.51;101728.56;10071658;29;20068;-78
2022/10/06 14:15:51;;;;;;;7.05;1.50;;;;;;;21.27;36.22;101715.97;10044892;29;20064;-78
2022/10/06 14:20:55;;;;;;;3.15;1.30;;;;;;;20.99;36.90;101710.66;10021662;29;20048;-79
2022/10/06 14:25:58;;;;;;;5.72;1.55;;;;;;;21.24;36.90;101714.41;10049689;29;20053;-77
2022/10/06 14:31:03;;;;;;;10.95;1.45;;;;;;;22.20;35.12;101735.97;10017612;29;20060;-77
2022/10/06 14:36:11;;;;;;;5.35;1.63;;;;;;;20.52;37.28;101735.56;10019820;29;20057;-78
2022/10/06 14:41:15;;;;;;;6.72;1.20;;;;;;;19.13;38.66;101728.44;10015562;29;20053;-78
2022/10/06 14:46:23;;;;;;;5.72;1.38;;;;;;;18.80;39.45;101717.88;10019944;29;20057;-79
2022/10/06 14:51:27;;;;;;;8.63;2.15;;;;;;;19.27;39.48;101718.91;10020361;29;20061;-77
2022/10/06 14:56:36;;;;;;;6.40;1.55;;;;;;;18.38;40.76;101716.50;10020965;29;20085;-77
2022/10/06 15:01:41;;;;;;;7.13;1.40;;;;;;;17.86;41.79;101724.84;10020678;29;20080;-77
2022/10/06 15:12:06;;;;;;;6.05;1.30;;;;;;;18.12;40.84;101722.47;10002789;29;20086;-77
2022/10/06 15:17:11;;;;;;;6.25;1.23;;;;;;;17.87;41.28;101712.97;10017972;29;20053;-78
2022/10/06 15:22:13;;;;;;;5.65;1.20;;;;;;;17.38;41.83;101712.81;10038967;29;21242;-78
2022/10/06 15:32:38;;;;;;;6.80;1.15;;;;;;;17.07;42.78;101717.34;10000000;29;20053;-78
2022/10/06 15:37:40;;;;;;;5.97;1.10;;;;;;;16.65;44.41;101714.66;10014087;29;20072;-78
2022/10/06 15:42:46;;;;;;;9.00;1.40;;;;;;;16.69;44.63;101715.25;9988036;29;21148;-79
2022/10/06 15:47:51;;;;;;;6.18;1.75;;;;;;;16.97;44.22;101709.13;10011432;29;20490;-78
2022/10/06 15:52:55;;;;;;;8.57;1.42;;;;;;;16.75;44.79;101715.56;10021188;29;20061;-79
2022/10/06 15:57:58;;;;;;;11.48;1.48;;;;;;;16.96;44.67;101722.88;10020546;29;20053;-77
2022/10/06 16:03:11;;;;;;;8.15;1.55;;;;;;;15.93;46.52;101736.97;10000418;29;21284;-79
2022/10/06 16:08:16;;;;;;;9.15;1.98;;;;;;;16.08;46.58;101727.56;10058565;29;20060;-78
2022/10/06 16:13:19;;;;;;;9.75;1.40;;;;;;;16.11;46.59;101723.75;10025275;29;21643;-78
2022/10/06 16:18:24;;;;;;;7.55;1.45;;;;;;;15.84;47.09;101719.63;10020130;29;20312;-77
2022/10/06 16:23:26;;;;;;;5.18;2.03;;;;;;;15.52;47.81;101722.25;10014618;29;20061;-78
2022/10/06 16:28:29;;;;;;;6.60;1.92;;;;;;;15.72;47.52;101722.50;10018671;29;20057;-76
2022/10/06 16:33:33;;;;;;;7.43;1.37;;;;;;;15.63;48.02;101713.25;10006679;29;20124;-77
2022/10/06 16:38:36;;;;;;;10.32;1.50;;;;;;;14.91;48.55;101725.25;10011965;29;20050;-76
2022/10/06 16:43:42;;;;;;;7.55;1.80;;;;;;;15.09;48.87;101716.69;10030985;29;20257;-77
2022/10/06 16:48:48;;;;;;;7.05;1.85;;;;;;;14.80;49.30;101717.97;10000363;29;20057;-77
2022/10/06 16:53:52;;;;;;;7.05;1.40;;;;;;;14.64;50.11;101727.41;9993392;29;20058;-77
2022/10/06 16:58:56;;;;;;;7.40;2.03;;;;;;;14.54;50.59;101732.69;9994131;29;20046;-75
2022/10/06 17:04:02;;;;;;;13.73;2.17;;;;;;;14.47;50.66;101740.38;9980033;29;20060;-76
2022/10/06 17:09:07;;;;;;;8.48;2.30;;;;;;;14.32;51.13;101741.53;10032075;29;20054;-78
2022/10/06 17:14:11;;;;;;;9.43;2.22;;;;;;;14.08;51.78;101749.63;10025565;29;20057;-78
2022/10/06 17:19:16;;;;;;;8.02;2.22;;;;;;;14.08;51.90;101742.38;9998734;29;20048;-77
2022/10/06 17:24:19;;;;;;;7.10;2.25;;;;;;;14.11;52.06;101746.69;10023987;29;20147;-78
2022/10/06 17:29:23;;;;;;;4.97;2.20;;;;;;;14.08;53.77;101753.19;10052240;29;20057;-78
2022/10/06 17:34:28;;;;;;;11.35;2.17;;;;;;;13.99;54.20;101755.69;10018371;29;20078;-77
2022/10/06 17:39:35;;;;;;;7.03;1.67;;;;;;;13.82;54.82;101760.53;10012777;29;20056;-77
2022/10/06 17:44:38;;;;;;;9.50;1.98;;;;;;;13.61;53.79;101759.38;10022119;29;20049;-76
2022/10/06 17:49:41;;;;;;;;;;;;;;;13.51;53.60;101752.91;10022668;29;20050;-77
2022/10/06 17:54:45;;;;;;;9.23;3.00;;;;;;;13.54;53.29;101758.09;10023145;29;19928;-76
2022/10/06 17:59:47;;;;;;;9.68;2.42;;;;;;;13.54;53.42;101752.69;10026763;29;20420;-76
2022/10/06 18:04:52;;;;;;;15.35;3.67;;;;;;;13.59;54.01;101766.72;10024477;29;20198;-77
2022/10/06 18:15:11;;;;;;;5.13;2.60;;;;;;;13.32;55.17;101759.59;10037220;29;20049;-77
2022/10/06 18:20:15;;;;;;;;;;;;;;;13.09;54.74;101755.81;10019288;29;20049;-77
2022/10/06 18:25:18;;;;;;;9.00;2.25;;;;;;;13.00;55.20;101759.13;10020556;29;20314;-76
2022/10/06 18:30:29;;;;;;;8.05;3.53;;;;;;;12.99;55.20;101755.59;10014288;29;20049;-77
2022/10/06 18:35:33;;;;;;;9.10;3.00;;;;;;;12.87;55.30;101755.59;10020841;29;20064;-76
2022/10/06 18:40:58;;;;;;;8.02;2.22;;;;;;;12.90;55.10;101744.59;10019530;29;20052;-76
2022/10/06 18:51:31;;;;;;;9.38;2.40;;;;;;;12.83;55.15;101753.13;10012628;29;20045;-78
2022/10/06 18:56:36;;;;;;;8.23;2.55;;;;;;;12.76;55.38;101757.19;10018145;29;20064;-77
2022/10/06 19:01:41;;;;;;;11.38;3.17;;;;;;;12.71;55.75;101750.38;10019592;29;20053;-77
2022/10/06 19:06:48;;;;;;;7.50;2.95;;;;;;;12.66;55.69;101755.22;10053495;29;20048;-78
2022/10/06 19:11:54;;;;;;;8.95;2.88;;;;;;;12.62;55.60;101759.97;10060787;29;20041;-77
2022/10/06 19:16:58;;;;;;;14.10;3.55;;;;;;;12.63;55.73;101760.81;10061713;29;20087;-76
2022/10/06 19:22:04;;;;;;;12.88;3.17;;;;;;;12.57;55.99;101771.06;10054620;29;20049;-77
2022/10/06 19:27:10;;;;;;;15.85;4.72;;;;;;;12.53;55.89;101772.25;10056233;29;20131;-76
2022/10/06 19:32:15;;;;;;;12.02;3.67;;;;;;;12.42;56.09;101769.38;10056084;29;20060;-76
2022/10/06 19:37:19;;;;;;;9.15;3.17;;;;;;;12.35;56.44;101773.47;10046531;29;20050;-76
2022/10/06 19:47:43;;;;;;;11.70;2.95;;;;;;;12.31;56.23;101763.84;10037378;29;20098;-75
2022/10/06 19:52:50;;;;;;;11.55;3.33;;;;;;;12.26;56.17;101763.25;10046600;29;20504;-75
2022/10/06 19:57:53;;;;;;;7.55;3.15;;;;;;;12.16;56.44;101763.88;10039772;29;20480;-75
2022/10/06 20:02:56;;;;;;;11.65;2.80;;;;;;;11.97;56.79;101768.75;10042707;29;20128;-77
2022/10/06 20:08:00;;;;;;;9.90;2.33;;;;;;;12.04;56.94;101767.38;10042283;29;20136;-75
2022/10/06 20:13:02;;;;;;;11.98;2.90;;;;;;;11.92;56.98;101766.34;10037849;29;20084;-76
2022/10/06 20:18:05;;;;;;;;;;;;;;;11.99;56.98;101769.50;10055645;29;20554;-76
2022/10/06 20:23:09;;;;;;;8.88;2.45;;;;;;;11.89;57.04;101774.63;10055223;29;20414;-76
2022/10/06 20:28:12;;;;;;;12.02;2.38;;;;;;;11.93;57.04;101776.16;10043580;29;20073;-76
2022/10/06 20:33:15;;;;;;;10.57;2.80;;;;;;;11.65;58.04;101774.34;10036078;29;20048;-76
2022/10/06 20:40:37;;;;;;;7.75;2.35;;;;;;;11.59;58.37;101772.06;10035514;29;20077;-75
2022/10/06 20:43:42;;;;;;;5.07;2.25;;;;;;;11.57;58.35;101776.66;10051162;29;20049;-76
2022/10/06 20:48:45;;;;;;;11.55;2.55;;;;;;;11.56;58.49;101774.94;10042561;29;20522;-77
2022/10/06 20:53:49;;;;;;;7.47;2.50;;;;;;;11.41;58.93;101779.47;10058706;29;20053;-77
2022/10/06 20:58:52;;;;;;;6.75;2.17;;;;;;;11.18;59.78;101777.34;10058131;29;20069;-76
2022/10/06 21:03:55;;;;;;;7.80;2.83;;;;;;;11.16;60.05;101777.44;10061292;29;20231;-77
2022/10/06 21:09:00;;;;;;;12.32;2.92;;;;;;;11.15;60.14;101774.84;10062015;29;20424;-76
2022/10/06 21:14:05;;;;;;;13.60;2.92;;;;;;;11.08;60.15;101770.75;10063677;29;20052;-76
2022/10/06 21:19:11;;;;;;;7.35;2.72;;;;;;;10.96;60.91;101767.88;10061453;29;20042;-76
2022/10/06 21:24:15;;;;;;;10.75;2.67;;;;;;;10.80;61.42;101762.53;10060875;29;20045;-76
2022/10/06 21:29:19;;;;;;;10.88;2.35;;;;;;;10.66;62.14;101758.97;10061110;29;20125;-77
2022/10/06 21:34:22;;;;;;;9.07;2.42;;;;;;;10.68;62.40;101759.75;10060544;29;20109;-76
2022/10/06 21:39:25;;;;;;;;;;;;;;;10.68;62.28;101755.22;10066605;29;20056;-77
2022/10/06 21:44:28;;;;;;;9.18;3.17;;;;;;;10.57;62.63;101753.19;10060324;29;19935;-77
2022/10/06 21:49:31;;;;;;;;;;;;;;;10.46;63.17;101752.94;10060899;29;20096;-76
2022/10/06 21:54:36;;;;;;;11.63;2.58;;;;;;;10.38;63.64;101752.53;10060082;29;19924;-76
2022/10/06 21:59:39;;;;;;;6.30;2.75;;;;;;;10.36;63.55;101744.56;10077864;29;20052;-75
2022/10/06 22:04:42;;;;;;;;;;;;;;;10.37;63.35;101740.94;10072507;29;20092;-75
2022/10/06 22:09:46;;;;;;;9.35;2.90;;;;;;;10.28;63.46;101738.75;10059461;29;19924;-77
2022/10/06 22:14:48;;;;;;;10.50;3.45;;;;;;;10.28;63.42;101737.91;10057305;29;20061;-77
2022/10/06 22:19:51;;;;;;;;;;;;;;;10.28;63.14;101736.06;10058908;29;20041;-77
2022/10/06 22:24:55;;;;;;;12.70;3.88;;;;;;;10.28;63.25;101736.06;10058174;29;19935;-76
2022/10/06 22:29:58;;;;;;;9.45;3.38;;;;;;;10.29;62.96;101724.41;10058305;29;20508;-76
2022/10/06 22:35:01;;;;;;;;;;;;;;;10.32;62.72;101723.34;10054581;29;20052;-77
2022/10/06 22:40:06;;;;;;;9.95;3.13;;;;;;;10.26;62.59;101727.28;10057708;29;20023;-77
2022/10/06 22:45:10;;;;;;;8.98;3.03;;;;;;;10.19;62.70;101714.28;10031627;29;20081;-76
2022/10/06 22:50:13;;;;;;;8.30;2.97;;;;;;;10.08;62.86;101707.72;10057560;29;20117;-77
2022/10/06 22:55:17;;;;;;;;;;;;;;;10.03;62.83;101704.41;10057377;29;20079;-76
2022/10/06 23:00:19;;;;;;;7.55;3.10;;;;;;;10.03;63.10;101696.38;10057124;29;19928;-76
2022/10/06 23:05:22;;;;;;;10.38;3.20;;;;;;;10.00;62.92;101690.31;10063361;29;20106;-76
2022/10/06 23:10:28;;;;;;;;;;;;;;;9.99;62.79;101686.78;10057356;29;20052;-77
2022/10/06 23:15:31;;;;;;;8.60;3.15;;;;;;;9.89;62.88;101683.75;10045343;29;19934;-77
2022/10/06 23:20:34;;;;;;;;;;;;;;;9.86;62.84;101683.06;10056985;29;20059;-76
2022/10/06 23:25:38;;;;;;;8.68;3.05;;;;;;;9.79;62.82;101669.13;10055804;29;20342;-76
2022/10/06 23:30:42;;;;;;;9.18;2.97;;;;;;;9.75;62.98;101664.00;10056181;29;20053;-77
2022/10/06 23:35:45;;;;;;;13.60;3.03;;;;;;;9.67;63.12;101673.34;10055480;29;20049;-77
2022/10/06 23:40:48;;;;;;;;;;;;;;;9.64;62.98;101657.41;10056447;29;20052;-76
2022/10/06 23:45:51;;;;;;;16.27;4.03;;;;;;;9.69;63.00;101665.22;10055378;29;19924;-76
2022/10/06 23:50:56;;;;;;;11.75;3.20;;;;;;;9.65;62.99;101660.97;10055913;29;20521;-76
2022/10/06 23:56:01;;;;;;;5.10;2.40;;;;;;;9.54;63.08;101658.88;10055236;29;20060;-76
